Jaguariaiva, Brazil
Current Conditions -  °F | °C
As of 12:00 PM on Friday 28 Nov 2014 (Local Time) from SBBI Reporting Station
Broken Clouds Broken Clouds  
Wind Chill: 72°   Ceiling: 2100
Heat Index: 72°   Visibility: 6mi
Dew Point: 59°   Wind: 7mph
Humidity: 64%   Direction: 100°E
Pressure: 30.12"   Gusts: NA
Location:  24.25°S, 49.71°W
Report Text: SBBI 281400Z 10006KT 9999 BKN021 22/15 Q1020
Loading
Personal Weather Stations






























Interactive Weather Map New forecast layout! Learn more

10-Day Weather Forecast

Advertisements
Track Severe Weather on mobile